sensor_id;sensor_type;location;lat;lon;timestamp;pressure;altitude;pressure_sealevel;temperature;humidity
9935;BME280;5006;41.828;23.478;2024-01-30T00:00:33;91769.38;;;10.56;39.26
9935;BME280;5006;41.828;23.478;2024-01-30T00:01:39;91763.41;;;10.13;39.39
9935;BME280;5006;41.828;23.478;2024-01-30T00:02:44;91768.72;;;9.97;39.70
9935;BME280;5006;41.828;23.478;2024-01-30T00:03:51;91764.34;;;10.55;37.92
9935;BME280;5006;41.828;23.478;2024-01-30T00:04:56;91766.19;;;10.51;38.60
9935;BME280;5006;41.828;23.478;2024-01-30T00:06:03;91768.22;;;9.92;40.02
9935;BME280;5006;41.828;23.478;2024-01-30T00:07:08;91776.31;;;9.49;41.09
9935;BME280;5006;41.828;23.478;2024-01-30T00:08:16;91770.81;;;10.35;40.41
9935;BME280;5006;41.828;23.478;2024-01-30T00:09:21;91774.53;;;9.84;40.94
9935;BME280;5006;41.828;23.478;2024-01-30T00:10:28;91772.81;;;9.76;41.06
9935;BME280;5006;41.828;23.478;2024-01-30T00:11:33;91771.75;;;9.65;42.16
9935;BME280;5006;41.828;23.478;2024-01-30T00:12:39;91769.06;;;9.96;41.26
9935;BME280;5006;41.828;23.478;2024-01-30T00:13:44;91778.09;;;9.29;41.44
9935;BME280;5006;41.828;23.478;2024-01-30T00:14:51;91771.81;;;9.53;41.61
9935;BME280;5006;41.828;23.478;2024-01-30T00:15:56;91773.16;;;8.88;43.54
9935;BME280;5006;41.828;23.478;2024-01-30T00:17:04;91774.78;;;9.20;43.20
9935;BME280;5006;41.828;23.478;2024-01-30T00:18:09;91777.38;;;9.75;41.50
9935;BME280;5006;41.828;23.478;2024-01-30T00:19:16;91768.41;;;9.83;42.21
9935;BME280;5006;41.828;23.478;2024-01-30T00:20:21;91778.66;;;10.77;41.43
9935;BME280;5006;41.828;23.478;2024-01-30T00:21:27;91768.63;;;9.94;41.30
9935;BME280;5006;41.828;23.478;2024-01-30T00:22:33;91769.56;;;10.48;40.16
9935;BME280;5006;41.828;23.478;2024-01-30T00:23:41;91773.19;;;10.55;38.97
9935;BME280;5006;41.828;23.478;2024-01-30T00:24:47;91771.88;;;10.15;38.91
9935;BME280;5006;41.828;23.478;2024-01-30T00:25:53;91772.16;;;9.51;38.69
9935;BME280;5006;41.828;23.478;2024-01-30T00:26:58;91776.69;;;9.94;38.15
9935;BME280;5006;41.828;23.478;2024-01-30T00:28:06;91777.31;;;10.18;38.00
9935;BME280;5006;41.828;23.478;2024-01-30T00:29:12;91782.16;;;10.28;37.45
9935;BME280;5006;41.828;23.478;2024-01-30T00:30:24;91782.19;;;10.47;37.53
9935;BME280;5006;41.828;23.478;2024-01-30T00:31:30;91781.91;;;11.05;36.49
9935;BME280;5006;41.828;23.478;2024-01-30T00:32:37;91776.69;;;9.63;37.06
9935;BME280;5006;41.828;23.478;2024-01-30T00:33:42;91775.13;;;9.93;37.25
9935;BME280;5006;41.828;23.478;2024-01-30T00:34:48;91774.44;;;10.61;36.20
9935;BME280;5006;41.828;23.478;2024-01-30T00:35:54;91778.28;;;10.79;36.29
9935;BME280;5006;41.828;23.478;2024-01-30T00:37:19;91780.91;;;10.75;37.71
9935;BME280;5006;41.828;23.478;2024-01-30T00:38:24;91769.53;;;10.82;37.80
9935;BME280;5006;41.828;23.478;2024-01-30T00:39:32;91768.69;;;11.16;37.43
9935;BME280;5006;41.828;23.478;2024-01-30T00:40:37;91769.28;;;11.06;36.88
9935;BME280;5006;41.828;23.478;2024-01-30T00:41:43;91769.59;;;11.23;36.59
9935;BME280;5006;41.828;23.478;2024-01-30T00:42:49;91775.66;;;10.64;36.55
9935;BME280;5006;41.828;23.478;2024-01-30T00:43:54;91776.03;;;11.00;36.23
9935;BME280;5006;41.828;23.478;2024-01-30T00:45:01;91772.47;;;11.11;36.62
9935;BME280;5006;41.828;23.478;2024-01-30T00:46:08;91767.63;;;10.29;37.26
9935;BME280;5006;41.828;23.478;2024-01-30T00:47:14;91778.50;;;9.90;38.67
9935;BME280;5006;41.828;23.478;2024-01-30T00:48:20;91779.88;;;9.99;38.89
9935;BME280;5006;41.828;23.478;2024-01-30T00:49:26;91775.75;;;9.71;38.65
9935;BME280;5006;41.828;23.478;2024-01-30T00:50:31;91775.16;;;8.40;41.11
9935;BME280;5006;41.828;23.478;2024-01-30T00:51:36;91768.91;;;8.60;41.49
9935;BME280;5006;41.828;23.478;2024-01-30T00:52:42;91768.47;;;9.40;40.44
9935;BME280;5006;41.828;23.478;2024-01-30T00:53:49;91768.59;;;9.32;40.04
9935;BME280;5006;41.828;23.478;2024-01-30T00:54:56;91772.69;;;8.86;40.68
9935;BME280;5006;41.828;23.478;2024-01-30T00:56:02;91763.31;;;9.20;42.09
9935;BME280;5006;41.828;23.478;2024-01-30T00:57:09;91769.19;;;9.25;41.79
9935;BME280;5006;41.828;23.478;2024-01-30T00:58:15;91765.88;;;8.61;42.24
9935;BME280;5006;41.828;23.478;2024-01-30T00:59:21;91770.31;;;9.24;41.87
9935;BME280;5006;41.828;23.478;2024-01-30T01:00:26;91763.13;;;9.87;40.47
9935;BME280;5006;41.828;23.478;2024-01-30T01:01:34;91764.41;;;9.62;40.12
9935;BME280;5006;41.828;23.478;2024-01-30T01:02:39;91773.72;;;9.09;40.97
9935;BME280;5006;41.828;23.478;2024-01-30T01:03:45;91770.91;;;9.18;39.77
9935;BME280;5006;41.828;23.478;2024-01-30T01:04:50;91768.97;;;9.61;39.49
9935;BME280;5006;41.828;23.478;2024-01-30T01:05:56;91774.78;;;9.48;39.66
9935;BME280;5006;41.828;23.478;2024-01-30T01:07:01;91767.06;;;9.03;39.94
9935;BME280;5006;41.828;23.478;2024-01-30T01:08:08;91766.91;;;9.12;40.19
9935;BME280;5006;41.828;23.478;2024-01-30T01:09:14;91770.25;;;9.21;40.41
9935;BME280;5006;41.828;23.478;2024-01-30T01:10:23;91770.63;;;9.07;41.55
9935;BME280;5006;41.828;23.478;2024-01-30T01:11:28;91777.19;;;8.82;41.68
9935;BME280;5006;41.828;23.478;2024-01-30T01:12:35;91776.75;;;8.80;41.16
9935;BME280;5006;41.828;23.478;2024-01-30T01:13:40;91769.00;;;9.18;40.66
9935;BME280;5006;41.828;23.478;2024-01-30T01:14:46;91774.41;;;9.34;40.51
9935;BME280;5006;41.828;23.478;2024-01-30T01:15:52;91770.69;;;9.38;39.70
9935;BME280;5006;41.828;23.478;2024-01-30T01:16:58;91765.88;;;9.59;39.22
9935;BME280;5006;41.828;23.478;2024-01-30T01:18:04;91768.66;;;9.63;39.53
9935;BME280;5006;41.828;23.478;2024-01-30T01:19:10;91763.88;;;9.41;40.02
9935;BME280;5006;41.828;23.478;2024-01-30T01:20:16;91771.19;;;9.28;40.04
9935;BME280;5006;41.828;23.478;2024-01-30T01:21:22;91772.31;;;9.43;39.74
9935;BME280;5006;41.828;23.478;2024-01-30T01:22:28;91767.34;;;9.57;39.72
9935;BME280;5006;41.828;23.478;2024-01-30T01:23:35;91766.06;;;9.23;40.29
9935;BME280;5006;41.828;23.478;2024-01-30T01:24:40;91761.75;;;8.64;42.25
9935;BME280;5006;41.828;23.478;2024-01-30T01:25:48;91772.19;;;8.18;42.53
9935;BME280;5006;41.828;23.478;2024-01-30T01:26:54;91764.56;;;8.55;42.92
9935;BME280;5006;41.828;23.478;2024-01-30T01:28:01;91764.91;;;8.42;43.89
9935;BME280;5006;41.828;23.478;2024-01-30T01:29:07;91765.41;;;8.20;43.69
9935;BME280;5006;41.828;23.478;2024-01-30T01:30:16;91760.28;;;8.27;42.95
9935;BME280;5006;41.828;23.478;2024-01-30T01:31:26;91754.63;;;8.95;41.02
9935;BME280;5006;41.828;23.478;2024-01-30T01:32:34;91757.25;;;9.07;40.18
9935;BME280;5006;41.828;23.478;2024-01-30T01:33:39;91750.19;;;8.87;40.69
9935;BME280;5006;41.828;23.478;2024-01-30T01:34:46;91751.75;;;8.88;41.41
9935;BME280;5006;41.828;23.478;2024-01-30T01:35:51;91749.22;;;8.80;40.43
9935;BME280;5006;41.828;23.478;2024-01-30T01:36:58;91749.41;;;9.30;39.97
9935;BME280;5006;41.828;23.478;2024-01-30T01:38:04;91753.28;;;9.60;39.59
9935;BME280;5006;41.828;23.478;2024-01-30T01:39:10;91750.75;;;9.51;39.93
9935;BME280;5006;41.828;23.478;2024-01-30T01:40:15;91752.72;;;9.39;39.74
9935;BME280;5006;41.828;23.478;2024-01-30T01:41:21;91749.56;;;8.78;41.42
9935;BME280;5006;41.828;23.478;2024-01-30T01:42:28;91758.78;;;8.81;40.49
9935;BME280;5006;41.828;23.478;2024-01-30T01:43:34;91757.66;;;8.54;40.02
9935;BME280;5006;41.828;23.478;2024-01-30T01:44:40;91752.19;;;8.51;39.70
9935;BME280;5006;41.828;23.478;2024-01-30T01:45:46;91752.75;;;9.11;39.45
9935;BME280;5006;41.828;23.478;2024-01-30T01:46:53;91755.53;;;9.15;38.33
9935;BME280;5006;41.828;23.478;2024-01-30T01:47:59;91759.50;;;8.66;38.92
9935;BME280;5006;41.828;23.478;2024-01-30T01:49:06;91765.72;;;8.31;40.41
9935;BME280;5006;41.828;23.478;2024-01-30T01:50:12;91767.72;;;8.85;40.24
9935;BME280;5006;41.828;23.478;2024-01-30T01:51:18;91769.56;;;8.69;40.33
9935;BME280;5006;41.828;23.478;2024-01-30T01:52:25;91770.13;;;8.90;39.48
9935;BME280;5006;41.828;23.478;2024-01-30T01:53:31;91775.19;;;8.28;39.55
9935;BME280;5006;41.828;23.478;2024-01-30T01:54:38;91770.84;;;6.75;41.90
9935;BME280;5006;41.828;23.478;2024-01-30T01:55:45;91774.00;;;7.21;41.05
9935;BME280;5006;41.828;23.478;2024-01-30T01:56:54;91770.78;;;6.83;41.37
9935;BME280;5006;41.828;23.478;2024-01-30T01:57:59;91769.09;;;6.58;41.45
9935;BME280;5006;41.828;23.478;2024-01-30T01:59:07;91771.13;;;6.94;41.25
9935;BME280;5006;41.828;23.478;2024-01-30T02:00:14;91767.56;;;6.57;42.88
9935;BME280;5006;41.828;23.478;2024-01-30T02:01:20;91758.84;;;6.48;44.64
9935;BME280;5006;41.828;23.478;2024-01-30T02:02:27;91767.91;;;6.68;44.69
9935;BME280;5006;41.828;23.478;2024-01-30T02:03:36;91763.56;;;6.96;44.66
9935;BME280;5006;41.828;23.478;2024-01-30T02:04:43;91766.63;;;7.75;43.98
9935;BME280;5006;41.828;23.478;2024-01-30T02:05:51;91767.41;;;8.11;41.89
9935;BME280;5006;41.828;23.478;2024-01-30T02:06:56;91763.41;;;7.81;40.75
9935;BME280;5006;41.828;23.478;2024-01-30T02:08:04;91760.25;;;7.31;42.57
9935;BME280;5006;41.828;23.478;2024-01-30T02:09:10;91770.16;;;7.43;43.05
9935;BME280;5006;41.828;23.478;2024-01-30T02:10:17;91773.16;;;7.53;43.42
9935;BME280;5006;41.828;23.478;2024-01-30T02:11:24;91766.66;;;7.18;43.31
9935;BME280;5006;41.828;23.478;2024-01-30T02:12:31;91768.91;;;6.84;44.19
9935;BME280;5006;41.828;23.478;2024-01-30T02:13:37;91775.28;;;6.71;43.61
9935;BME280;5006;41.828;23.478;2024-01-30T02:14:46;91773.22;;;7.21;42.54
9935;BME280;5006;41.828;23.478;2024-01-30T02:15:51;91768.50;;;7.86;41.78
9935;BME280;5006;41.828;23.478;2024-01-30T02:16:59;91769.25;;;8.47;40.71
9935;BME280;5006;41.828;23.478;2024-01-30T02:18:04;91759.91;;;8.80;40.17
9935;BME280;5006;41.828;23.478;2024-01-30T02:19:11;91769.34;;;8.62;39.94
9935;BME280;5006;41.828;23.478;2024-01-30T02:20:17;91766.91;;;8.84;40.40
9935;BME280;5006;41.828;23.478;2024-01-30T02:21:25;91763.66;;;8.91;40.88
9935;BME280;5006;41.828;23.478;2024-01-30T02:22:32;91770.59;;;8.80;40.79
9935;BME280;5006;41.828;23.478;2024-01-30T02:23:39;91771.41;;;8.80;40.96
9935;BME280;5006;41.828;23.478;2024-01-30T02:24:46;91767.88;;;8.64;41.48
9935;BME280;5006;41.828;23.478;2024-01-30T02:25:53;91769.38;;;8.89;40.15
9935;BME280;5006;41.828;23.478;2024-01-30T02:26:59;91763.44;;;8.56;40.88
9935;BME280;5006;41.828;23.478;2024-01-30T02:28:05;91771.00;;;8.66;40.08
9935;BME280;5006;41.828;23.478;2024-01-30T02:29:11;91768.06;;;7.84;42.07
9935;BME280;5006;41.828;23.478;2024-01-30T02:30:17;91761.22;;;8.47;40.80
9935;BME280;5006;41.828;23.478;2024-01-30T02:31:22;91772.88;;;7.91;41.43
9935;BME280;5006;41.828;23.478;2024-01-30T02:32:29;91769.50;;;8.42;41.98
9935;BME280;5006;41.828;23.478;2024-01-30T02:33:34;91775.09;;;7.77;43.78
9935;BME280;5006;41.828;23.478;2024-01-30T02:34:41;91774.09;;;7.81;43.01
9935;BME280;5006;41.828;23.478;2024-01-30T02:35:47;91772.19;;;8.18;43.68
9935;BME280;5006;41.828;23.478;2024-01-30T02:36:54;91770.50;;;8.13;44.45
9935;BME280;5006;41.828;23.478;2024-01-30T02:38:01;91774.84;;;7.94;45.19
9935;BME280;5006;41.828;23.478;2024-01-30T02:39:06;91767.28;;;8.20;45.10
9935;BME280;5006;41.828;23.478;2024-01-30T02:40:12;91766.41;;;7.80;46.25
9935;BME280;5006;41.828;23.478;2024-01-30T02:41:18;91768.09;;;7.16;47.29
9935;BME280;5006;41.828;23.478;2024-01-30T02:42:25;91772.31;;;7.17;47.22
9935;BME280;5006;41.828;23.478;2024-01-30T02:43:31;91772.50;;;8.04;46.06
9935;BME280;5006;41.828;23.478;2024-01-30T02:44:36;91764.28;;;7.73;45.06
9935;BME280;5006;41.828;23.478;2024-01-30T02:45:42;91770.63;;;7.81;44.75
9935;BME280;5006;41.828;23.478;2024-01-30T02:46:47;91759.78;;;8.49;44.39
9935;BME280;5006;41.828;23.478;2024-01-30T02:47:53;91765.72;;;7.95;43.82
9935;BME280;5006;41.828;23.478;2024-01-30T02:48:58;91766.84;;;8.18;43.92
9935;BME280;5006;41.828;23.478;2024-01-30T02:50:05;91767.28;;;7.72;44.91
9935;BME280;5006;41.828;23.478;2024-01-30T02:51:10;91770.81;;;7.40;46.16
9935;BME280;5006;41.828;23.478;2024-01-30T02:52:18;91767.91;;;7.45;45.46
9935;BME280;5006;41.828;23.478;2024-01-30T02:53:24;91760.06;;;7.96;44.29
9935;BME280;5006;41.828;23.478;2024-01-30T02:54:30;91762.84;;;7.64;43.12
9935;BME280;5006;41.828;23.478;2024-01-30T02:55:35;91758.63;;;7.63;44.08
9935;BME280;5006;41.828;23.478;2024-01-30T02:56:41;91757.16;;;7.65;43.55
9935;BME280;5006;41.828;23.478;2024-01-30T02:57:46;91756.84;;;7.91;43.27
9935;BME280;5006;41.828;23.478;2024-01-30T02:58:52;91752.94;;;7.64;45.64
9935;BME280;5006;41.828;23.478;2024-01-30T02:59:57;91750.25;;;7.52;44.69
9935;BME280;5006;41.828;23.478;2024-01-30T03:01:04;91756.63;;;7.03;45.05
9935;BME280;5006;41.828;23.478;2024-01-30T03:02:09;91757.44;;;7.16;45.34
9935;BME280;5006;41.828;23.478;2024-01-30T03:03:15;91754.94;;;7.55;45.52
9935;BME280;5006;41.828;23.478;2024-01-30T03:04:20;91753.16;;;7.95;44.44
9935;BME280;5006;41.828;23.478;2024-01-30T03:05:26;91757.16;;;7.89;45.14
9935;BME280;5006;41.828;23.478;2024-01-30T03:06:31;91752.16;;;8.00;44.54
9935;BME280;5006;41.828;23.478;2024-01-30T03:07:40;91754.28;;;8.30;43.38
9935;BME280;5006;41.828;23.478;2024-01-30T03:08:45;91754.47;;;7.53;44.23
9935;BME280;5006;41.828;23.478;2024-01-30T03:09:52;91755.41;;;7.93;43.46
9935;BME280;5006;41.828;23.478;2024-01-30T03:10:57;91754.41;;;7.86;43.53
9935;BME280;5006;41.828;23.478;2024-01-30T03:12:04;91746.28;;;7.82;44.03
9935;BME280;5006;41.828;23.478;2024-01-30T03:13:09;91748.47;;;8.04;44.00
9935;BME280;5006;41.828;23.478;2024-01-30T03:14:14;91742.78;;;8.42;43.22
9935;BME280;5006;41.828;23.478;2024-01-30T03:15:21;91753.28;;;7.63;42.73
9935;BME280;5006;41.828;23.478;2024-01-30T03:16:27;91749.00;;;8.34;43.01
9935;BME280;5006;41.828;23.478;2024-01-30T03:17:33;91748.13;;;8.06;43.00
9935;BME280;5006;41.828;23.478;2024-01-30T03:18:38;91752.22;;;7.19;44.21
9935;BME280;5006;41.828;23.478;2024-01-30T03:19:45;91747.03;;;7.35;44.67
9935;BME280;5006;41.828;23.478;2024-01-30T03:20:50;91740.38;;;7.77;45.25
9935;BME280;5006;41.828;23.478;2024-01-30T03:21:56;91743.13;;;7.44;44.39
9935;BME280;5006;41.828;23.478;2024-01-30T03:23:03;91747.53;;;7.16;44.54
9935;BME280;5006;41.828;23.478;2024-01-30T03:24:09;91745.69;;;7.53;44.46
9935;BME280;5006;41.828;23.478;2024-01-30T03:25:15;91743.78;;;8.01;43.80
9935;BME280;5006;41.828;23.478;2024-01-30T03:26:21;91749.94;;;7.90;42.99
9935;BME280;5006;41.828;23.478;2024-01-30T03:27:26;91755.25;;;7.54;42.93
9935;BME280;5006;41.828;23.478;2024-01-30T03:28:33;91753.72;;;7.53;42.94
9935;BME280;5006;41.828;23.478;2024-01-30T03:29:38;91750.47;;;7.47;42.46
9935;BME280;5006;41.828;23.478;2024-01-30T03:30:44;91757.78;;;7.38;41.14
9935;BME280;5006;41.828;23.478;2024-01-30T03:31:49;91756.91;;;7.34;40.73
9935;BME280;5006;41.828;23.478;2024-01-30T03:32:55;91749.66;;;6.78;41.46
9935;BME280;5006;41.828;23.478;2024-01-30T03:34:01;91753.63;;;7.05;41.88
9935;BME280;5006;41.828;23.478;2024-01-30T03:35:09;91748.66;;;7.27;41.44
9935;BME280;5006;41.828;23.478;2024-01-30T03:36:15;91749.13;;;6.85;42.53
9935;BME280;5006;41.828;23.478;2024-01-30T03:37:22;91744.03;;;6.19;42.73
9935;BME280;5006;41.828;23.478;2024-01-30T03:38:29;91752.28;;;6.46;43.30
9935;BME280;5006;41.828;23.478;2024-01-30T03:39:37;91753.44;;;6.77;44.34
9935;BME280;5006;41.828;23.478;2024-01-30T03:40:42;91748.50;;;7.00;43.34
9935;BME280;5006;41.828;23.478;2024-01-30T03:41:48;91742.53;;;7.15;43.63
9935;BME280;5006;41.828;23.478;2024-01-30T03:42:54;91742.69;;;7.42;44.01
9935;BME280;5006;41.828;23.478;2024-01-30T03:44:01;91754.25;;;6.37;45.12
9935;BME280;5006;41.828;23.478;2024-01-30T03:45:08;91748.13;;;6.36;45.88
9935;BME280;5006;41.828;23.478;2024-01-30T03:46:14;91748.91;;;6.57;46.08
9935;BME280;5006;41.828;23.478;2024-01-30T03:47:20;91757.47;;;6.63;45.51
9935;BME280;5006;41.828;23.478;2024-01-30T03:48:27;91755.47;;;7.37;44.79
9935;BME280;5006;41.828;23.478;2024-01-30T03:49:33;91749.97;;;7.09;43.98
9935;BME280;5006;41.828;23.478;2024-01-30T03:50:40;91750.63;;;7.06;43.95
9935;BME280;5006;41.828;23.478;2024-01-30T03:51:46;91755.34;;;6.56;44.77
9935;BME280;5006;41.828;23.478;2024-01-30T03:52:53;91754.50;;;6.64;45.42
9935;BME280;5006;41.828;23.478;2024-01-30T03:53:59;91748.13;;;7.46;45.03
9935;BME280;5006;41.828;23.478;2024-01-30T03:55:07;91750.59;;;6.94;45.28
9935;BME280;5006;41.828;23.478;2024-01-30T03:56:12;91750.78;;;6.77;44.98
9935;BME280;5006;41.828;23.478;2024-01-30T03:57:19;91750.38;;;6.67;44.97
9935;BME280;5006;41.828;23.478;2024-01-30T03:58:24;91750.91;;;6.93;44.87
9935;BME280;5006;41.828;23.478;2024-01-30T03:59:30;91748.00;;;6.33;44.91
9935;BME280;5006;41.828;23.478;2024-01-30T04:00:35;91749.41;;;6.71;45.42
9935;BME280;5006;41.828;23.478;2024-01-30T04:01:41;91757.22;;;6.15;45.25
9935;BME280;5006;41.828;23.478;2024-01-30T04:02:46;91758.25;;;6.23;44.91
9935;BME280;5006;41.828;23.478;2024-01-30T04:03:52;91761.63;;;6.52;45.17
9935;BME280;5006;41.828;23.478;2024-01-30T04:04:57;91753.22;;;6.30;45.60
9935;BME280;5006;41.828;23.478;2024-01-30T04:06:03;91757.34;;;6.59;45.21
9935;BME280;5006;41.828;23.478;2024-01-30T04:07:09;91759.19;;;6.47;45.57
9935;BME280;5006;41.828;23.478;2024-01-30T04:08:15;91757.03;;;6.61;46.43
9935;BME280;5006;41.828;23.478;2024-01-30T04:09:21;91746.50;;;6.44;45.54
9935;BME280;5006;41.828;23.478;2024-01-30T04:10:28;91751.25;;;6.91;45.81
9935;BME280;5006;41.828;23.478;2024-01-30T04:11:34;91747.84;;;6.70;46.08
9935;BME280;5006;41.828;23.478;2024-01-30T04:12:40;91752.81;;;6.60;46.05
9935;BME280;5006;41.828;23.478;2024-01-30T04:13:45;91753.81;;;6.06;47.02
9935;BME280;5006;41.828;23.478;2024-01-30T04:14:53;91752.75;;;6.28;46.36
9935;BME280;5006;41.828;23.478;2024-01-30T04:15:59;91753.31;;;6.53;45.96
9935;BME280;5006;41.828;23.478;2024-01-30T04:17:07;91755.66;;;6.55;45.38
9935;BME280;5006;41.828;23.478;2024-01-30T04:18:12;91753.78;;;6.88;45.75
9935;BME280;5006;41.828;23.478;2024-01-30T04:19:18;91755.06;;;6.49;45.36
9935;BME280;5006;41.828;23.478;2024-01-30T04:20:23;91761.50;;;6.48;44.98
9935;BME280;5006;41.828;23.478;2024-01-30T04:21:30;91757.00;;;6.81;44.49
9935;BME280;5006;41.828;23.478;2024-01-30T04:22:35;91755.84;;;6.70;44.81
9935;BME280;5006;41.828;23.478;2024-01-30T04:23:41;91753.25;;;6.94;45.23
9935;BME280;5006;41.828;23.478;2024-01-30T04:24:48;91756.72;;;7.63;44.35
9935;BME280;5006;41.828;23.478;2024-01-30T04:25:55;91758.97;;;7.17;44.00
9935;BME280;5006;41.828;23.478;2024-01-30T04:27:00;91762.25;;;7.34;45.20
9935;BME280;5006;41.828;23.478;2024-01-30T04:28:08;91755.94;;;7.51;45.71
9935;BME280;5006;41.828;23.478;2024-01-30T04:29:14;91763.38;;;7.45;45.13
9935;BME280;5006;41.828;23.478;2024-01-30T04:30:21;91757.16;;;7.65;44.77
9935;BME280;5006;41.828;23.478;2024-01-30T04:31:28;91756.91;;;7.34;44.59
9935;BME280;5006;41.828;23.478;2024-01-30T04:32:35;91765.03;;;7.38;43.20
9935;BME280;5006;41.828;23.478;2024-01-30T04:33:41;91757.50;;;7.64;43.19
9935;BME280;5006;41.828;23.478;2024-01-30T04:34:47;91759.81;;;8.01;43.29
9935;BME280;5006;41.828;23.478;2024-01-30T04:35:52;91760.72;;;7.57;43.42
9935;BME280;5006;41.828;23.478;2024-01-30T04:36:58;91763.59;;;7.64;43.99
9935;BME280;5006;41.828;23.478;2024-01-30T04:38:04;91758.50;;;7.71;43.78
9935;BME280;5006;41.828;23.478;2024-01-30T04:39:10;91757.41;;;8.20;43.39
9935;BME280;5006;41.828;23.478;2024-01-30T04:40:19;91762.84;;;7.76;44.16
9935;BME280;5006;41.828;23.478;2024-01-30T04:41:24;91767.94;;;7.69;43.48
9935;BME280;5006;41.828;23.478;2024-01-30T04:42:31;91764.31;;;8.21;43.34
9935;BME280;5006;41.828;23.478;2024-01-30T04:43:37;91767.41;;;8.35;44.16
9935;BME280;5006;41.828;23.478;2024-01-30T04:44:43;91768.50;;;7.86;43.79
9935;BME280;5006;41.828;23.478;2024-01-30T04:45:49;91762.63;;;7.12;45.35
9935;BME280;5006;41.828;23.478;2024-01-30T04:46:55;91767.25;;;7.24;44.82
9935;BME280;5006;41.828;23.478;2024-01-30T04:48:03;91763.72;;;7.68;44.56
9935;BME280;5006;41.828;23.478;2024-01-30T04:49:10;91769.06;;;7.11;44.49
9935;BME280;5006;41.828;23.478;2024-01-30T04:50:16;91766.81;;;7.58;45.06
9935;BME280;5006;41.828;23.478;2024-01-30T04:51:23;91776.22;;;7.19;44.30
9935;BME280;5006;41.828;23.478;2024-01-30T04:52:29;91772.75;;;7.75;43.81
9935;BME280;5006;41.828;23.478;2024-01-30T04:53:35;91777.19;;;7.59;44.43
9935;BME280;5006;41.828;23.478;2024-01-30T04:54:40;91776.97;;;8.00;44.30
9935;BME280;5006;41.828;23.478;2024-01-30T04:55:47;91782.88;;;7.82;44.58
9935;BME280;5006;41.828;23.478;2024-01-30T04:56:53;91776.69;;;6.89;44.91
9935;BME280;5006;41.828;23.478;2024-01-30T04:57:59;91778.06;;;6.74;47.09
9935;BME280;5006;41.828;23.478;2024-01-30T04:59:04;91775.25;;;6.38;45.46
9935;BME280;5006;41.828;23.478;2024-01-30T05:00:11;91773.78;;;6.41;45.84
9935;BME280;5006;41.828;23.478;2024-01-30T05:01:17;91778.13;;;6.05;46.61
9935;BME280;5006;41.828;23.478;2024-01-30T05:02:23;91781.53;;;6.34;46.53
9935;BME280;5006;41.828;23.478;2024-01-30T05:03:28;91786.06;;;6.54;45.56
9935;BME280;5006;41.828;23.478;2024-01-30T05:04:34;91784.19;;;6.34;46.63
9935;BME280;5006;41.828;23.478;2024-01-30T05:05:40;91786.28;;;6.49;45.81
9935;BME280;5006;41.828;23.478;2024-01-30T05:06:47;91788.72;;;6.54;46.97
9935;BME280;5006;41.828;23.478;2024-01-30T05:07:52;91791.88;;;5.86;46.12
9935;BME280;5006;41.828;23.478;2024-01-30T05:08:58;91785.22;;;6.01;46.36
9935;BME280;5006;41.828;23.478;2024-01-30T05:10:04;91778.72;;;5.73;46.82
9935;BME280;5006;41.828;23.478;2024-01-30T05:11:12;91782.69;;;6.25;47.20
9935;BME280;5006;41.828;23.478;2024-01-30T05:12:17;91776.22;;;6.87;46.19
9935;BME280;5006;41.828;23.478;2024-01-30T05:13:23;91786.31;;;6.81;46.04
9935;BME280;5006;41.828;23.478;2024-01-30T05:14:28;91774.06;;;6.48;47.66
9935;BME280;5006;41.828;23.478;2024-01-30T05:15:34;91779.69;;;7.32;45.73
9935;BME280;5006;41.828;23.478;2024-01-30T05:16:39;91778.53;;;6.56;45.33
9935;BME280;5006;41.828;23.478;2024-01-30T05:17:45;91778.13;;;6.05;47.39
9935;BME280;5006;41.828;23.478;2024-01-30T05:18:50;91790.47;;;5.43;48.33
9935;BME280;5006;41.828;23.478;2024-01-30T05:19:56;91782.94;;;6.11;48.05
9935;BME280;5006;41.828;23.478;2024-01-30T05:21:02;91779.06;;;6.49;46.49
9935;BME280;5006;41.828;23.478;2024-01-30T05:22:08;91783.00;;;6.03;46.93
9935;BME280;5006;41.828;23.478;2024-01-30T05:23:14;91775.09;;;6.15;47.07
9935;BME280;5006;41.828;23.478;2024-01-30T05:24:20;91781.09;;;5.74;47.94
9935;BME280;5006;41.828;23.478;2024-01-30T05:25:25;91783.09;;;6.55;46.97
9935;BME280;5006;41.828;23.478;2024-01-30T05:26:32;91776.03;;;5.52;47.08
9935;BME280;5006;41.828;23.478;2024-01-30T05:27:37;91780.41;;;5.94;46.12
9935;BME280;5006;41.828;23.478;2024-01-30T05:28:43;91782.22;;;6.63;46.17
9935;BME280;5006;41.828;23.478;2024-01-30T05:29:49;91778.66;;;6.19;45.57
9935;BME280;5006;41.828;23.478;2024-01-30T05:30:56;91781.59;;;6.66;45.06
9935;BME280;5006;41.828;23.478;2024-01-30T05:32:02;91786.72;;;6.51;46.18
9935;BME280;5006;41.828;23.478;2024-01-30T05:33:09;91785.25;;;6.13;46.56
9935;BME280;5006;41.828;23.478;2024-01-30T05:34:16;91790.25;;;5.56;45.62
9935;BME280;5006;41.828;23.478;2024-01-30T05:35:23;91787.22;;;6.04;45.82
9935;BME280;5006;41.828;23.478;2024-01-30T05:36:28;91785.34;;;5.67;44.86
9935;BME280;5006;41.828;23.478;2024-01-30T05:37:34;91782.19;;;5.36;44.97
9935;BME280;5006;41.828;23.478;2024-01-30T05:38:39;91781.31;;;5.98;44.77
9935;BME280;5006;41.828;23.478;2024-01-30T05:39:45;91776.19;;;6.14;44.22
9935;BME280;5006;41.828;23.478;2024-01-30T05:40:50;91786.06;;;6.13;45.38
9935;BME280;5006;41.828;23.478;2024-01-30T05:41:57;91779.22;;;7.18;46.20
9935;BME280;5006;41.828;23.478;2024-01-30T05:43:02;91778.66;;;7.24;45.65
9935;BME280;5006;41.828;23.478;2024-01-30T05:44:09;91783.63;;;7.58;45.31
9935;BME280;5006;41.828;23.478;2024-01-30T05:45:15;91790.00;;;8.14;45.24
9935;BME280;5006;41.828;23.478;2024-01-30T05:46:22;91777.75;;;7.65;45.22
9935;BME280;5006;41.828;23.478;2024-01-30T05:47:27;91785.28;;;7.51;45.68
9935;BME280;5006;41.828;23.478;2024-01-30T05:48:34;91782.59;;;6.94;46.28
9935;BME280;5006;41.828;23.478;2024-01-30T05:49:40;91782.38;;;6.99;46.63
9935;BME280;5006;41.828;23.478;2024-01-30T05:50:46;91794.72;;;7.04;45.83
9935;BME280;5006;41.828;23.478;2024-01-30T05:51:52;91793.97;;;7.48;45.03
9935;BME280;5006;41.828;23.478;2024-01-30T05:52:57;91797.88;;;7.74;44.56
9935;BME280;5006;41.828;23.478;2024-01-30T05:54:03;91799.56;;;7.79;45.09
9935;BME280;5006;41.828;23.478;2024-01-30T05:55:09;91788.88;;;8.03;44.02
9935;BME280;5006;41.828;23.478;2024-01-30T05:56:16;91786.31;;;7.14;44.96
9935;BME280;5006;41.828;23.478;2024-01-30T05:57:22;91787.38;;;6.68;48.78
9935;BME280;5006;41.828;23.478;2024-01-30T05:58:29;91792.03;;;7.36;46.64
9935;BME280;5006;41.828;23.478;2024-01-30T05:59:36;91784.69;;;7.33;46.22